createdAt,value
2023-05-19T00:01:21.536Z,11.38
2023-05-19T00:04:07.865Z,11.35
2023-05-19T00:06:39.366Z,11.34
2023-05-19T00:09:10.788Z,11.34
2023-05-19T00:11:41.993Z,11.33
2023-05-19T00:14:14.896Z,11.32
2023-05-19T00:16:42.418Z,11.32
2023-05-19T00:19:10.357Z,11.36
2023-05-19T00:21:41.184Z,11.41
2023-05-19T00:24:10.790Z,11.48
2023-05-19T00:26:37.495Z,11.54
2023-05-19T00:29:04.681Z,11.63
2023-05-19T00:31:31.875Z,11.68
2023-05-19T00:33:58.559Z,11.73
2023-05-19T00:36:27.668Z,11.79
2023-05-19T00:38:57.421Z,11.85
2023-05-19T00:41:26.861Z,11.89
2023-05-19T00:43:56.662Z,11.95
2023-05-19T00:46:23.488Z,11.99
2023-05-19T00:48:50.129Z,12.04
2023-05-19T00:51:17.363Z,12.09
2023-05-19T00:53:51.349Z,12.13
2023-05-19T00:56:24.475Z,12.16
2023-05-19T00:58:54.552Z,12.15
2023-05-19T01:01:24.568Z,12.12
2023-05-19T01:03:51.556Z,12.10
2023-05-19T01:06:19.450Z,12.05
2023-05-19T01:08:49.324Z,12.03
2023-05-19T01:11:15.914Z,12.04
2023-05-19T01:13:43.378Z,12.04
2023-05-19T01:16:34.895Z,12.03
2023-05-19T01:19:16.522Z,12.11
2023-05-19T01:22:14.796Z,12.21
2023-05-19T01:25:03.026Z,12.29
2023-05-19T01:27:49.529Z,12.30
2023-05-19T01:30:35.916Z,12.29
2023-05-19T01:33:11.395Z,12.27
2023-05-19T01:35:39.863Z,12.34
2023-05-19T01:38:11.388Z,12.47
2023-05-19T01:40:42.847Z,12.61
2023-05-19T01:43:12.636Z,12.73
2023-05-19T01:45:40.865Z,12.85
2023-05-19T01:48:11.170Z,12.98
2023-05-19T01:50:38.219Z,13.09
2023-05-19T01:53:06.806Z,13.14
2023-05-19T01:55:41.625Z,13.16
2023-05-19T01:58:20.819Z,13.21
2023-05-19T02:01:03.015Z,13.29
2023-05-19T02:03:46.110Z,13.37
2023-05-19T02:06:59.905Z,13.48
2023-05-19T02:09:53.610Z,13.59
2023-05-19T02:12:30.982Z,13.70
2023-05-19T02:15:24.865Z,13.84
2023-05-19T02:17:56.268Z,14.00
2023-05-19T02:20:27.413Z,14.10
2023-05-19T02:22:56.118Z,14.16
2023-05-19T02:25:25.671Z,14.19
2023-05-19T02:27:58.944Z,14.24
2023-05-19T02:30:28.300Z,14.34
2023-05-19T02:32:57.277Z,14.46
2023-05-19T02:35:31.325Z,14.61
2023-05-19T02:37:58.964Z,14.75
2023-05-19T02:40:31.665Z,14.87
2023-05-19T02:42:58.374Z,15.01
2023-05-19T02:45:28.090Z,15.06
2023-05-19T02:47:54.798Z,15.08
2023-05-19T02:50:22.657Z,15.05
2023-05-19T02:52:49.292Z,15.09
2023-05-19T02:55:17.730Z,15.18
2023-05-19T02:57:46.269Z,15.26
2023-05-19T03:00:13.550Z,15.40
2023-05-19T03:02:44.448Z,15.52
2023-05-19T03:05:11.282Z,15.65
2023-05-19T03:07:37.914Z,15.76
2023-05-19T03:10:06.739Z,15.89
2023-05-19T03:12:33.861Z,15.97
2023-05-19T03:15:01.019Z,16.04
2023-05-19T03:17:28.859Z,16.14
2023-05-19T03:19:55.852Z,16.26
2023-05-19T03:22:22.492Z,16.35
2023-05-19T03:24:51.191Z,16.44
2023-05-19T03:27:17.901Z,16.52
2023-05-19T03:29:44.533Z,16.65
2023-05-19T03:32:11.271Z,16.71
2023-05-19T03:34:37.942Z,16.65
2023-05-19T03:37:04.865Z,16.61
2023-05-19T03:39:31.543Z,16.57
2023-05-19T03:41:58.176Z,16.50
2023-05-19T03:44:24.813Z,16.45
2023-05-19T03:46:53.050Z,16.41
2023-05-19T03:49:19.686Z,16.32
2023-05-19T03:51:46.267Z,16.26
2023-05-19T03:54:14.044Z,16.22
2023-05-19T03:56:43.283Z,16.17
2023-05-19T03:59:12.383Z,16.14
2023-05-19T04:01:39.203Z,16.12
2023-05-19T04:04:05.900Z,16.08
2023-05-19T04:06:33.957Z,16.05
2023-05-19T04:09:04.093Z,16.04
2023-05-19T04:11:30.841Z,16.09
2023-05-19T04:13:57.528Z,16.11
2023-05-19T04:16:24.353Z,16.13
2023-05-19T04:18:51.215Z,16.18
2023-05-19T04:21:17.874Z,16.23
2023-05-19T04:23:46.612Z,16.34
2023-05-19T04:26:14.823Z,16.44
2023-05-19T04:28:42.503Z,16.53
2023-05-19T04:31:13.171Z,16.63
2023-05-19T04:33:41.019Z,16.72
2023-05-19T04:36:10.630Z,16.79
2023-05-19T04:38:39.958Z,16.89
2023-05-19T04:41:10.718Z,17.00
2023-05-19T04:43:41.839Z,17.12
2023-05-19T04:46:13.194Z,17.23
2023-05-19T04:48:41.267Z,17.33
2023-05-19T04:51:08.145Z,17.43
2023-05-19T04:53:35.064Z,17.53
2023-05-19T04:56:02.307Z,17.62
2023-05-19T04:58:29.113Z,17.71
2023-05-19T05:00:56.545Z,17.78
2023-05-19T05:03:23.741Z,17.88
2023-05-19T05:05:51.068Z,17.96
2023-05-19T05:08:25.155Z,18.01
2023-05-19T05:10:53.042Z,18.09
2023-05-19T05:13:22.999Z,18.15
2023-05-19T05:15:50.305Z,18.22
2023-05-19T05:18:17.998Z,18.31
2023-05-19T05:20:49.164Z,18.37
2023-05-19T05:23:16.806Z,18.44
2023-05-19T05:25:45.186Z,18.51
2023-05-19T05:28:11.995Z,18.64
2023-05-19T05:30:38.939Z,18.79
2023-05-19T05:33:09.657Z,18.97
2023-05-19T05:35:36.601Z,19.12
2023-05-19T05:38:05.255Z,19.29
2023-05-19T05:40:37.050Z,19.47
2023-05-19T05:43:03.660Z,19.68
2023-05-19T05:45:30.426Z,19.88
2023-05-19T05:48:06.281Z,20.09
2023-05-19T05:50:38.958Z,20.35
2023-05-19T05:53:09.612Z,20.46
2023-05-19T05:55:36.581Z,20.61
2023-05-19T05:58:03.726Z,20.77
2023-05-19T06:00:38.282Z,20.89
2023-05-19T06:03:11.401Z,21.00
2023-05-19T06:05:38.681Z,21.12
2023-05-19T06:08:13.298Z,21.24
2023-05-19T06:10:41.845Z,21.38
2023-05-19T06:13:13.709Z,21.50
2023-05-19T06:15:40.450Z,21.59
2023-05-19T06:18:07.291Z,21.62
2023-05-19T06:20:36.495Z,21.63
2023-05-19T06:23:07.685Z,21.61
2023-05-19T06:25:35.196Z,21.68
2023-05-19T06:28:04.660Z,21.77
2023-05-19T06:30:31.758Z,21.84
2023-05-19T06:32:59.366Z,21.86
2023-05-19T06:35:26.170Z,21.91
2023-05-19T06:37:53.216Z,21.98
2023-05-19T06:40:23.375Z,22.02
2023-05-19T06:42:50.048Z,22.06
2023-05-19T06:45:17.127Z,22.07
2023-05-19T06:47:51.176Z,22.05
2023-05-19T06:50:17.952Z,22.07
2023-05-19T06:52:47.058Z,22.12
2023-05-19T06:55:19.542Z,22.10
2023-05-19T06:57:48.266Z,22.03
2023-05-19T07:00:23.651Z,22.04
2023-05-19T07:03:09.030Z,22.02
2023-05-19T07:05:39.411Z,22.01
2023-05-19T07:08:06.898Z,21.99
2023-05-19T07:10:35.714Z,22.01
2023-05-19T07:13:03.416Z,22.06
2023-05-19T07:15:30.051Z,22.07
2023-05-19T07:18:04.706Z,22.15
2023-05-19T07:20:33.727Z,22.20
2023-05-19T07:23:02.666Z,22.37
2023-05-19T07:25:35.199Z,22.50
2023-05-19T07:28:01.799Z,22.54
2023-05-19T07:30:34.470Z,22.70
2023-05-19T07:33:04.092Z,22.67
2023-05-19T07:35:33.668Z,22.64
2023-05-19T07:38:00.296Z,22.74
2023-05-19T07:40:27.088Z,22.74
2023-05-19T07:42:58.938Z,22.74
2023-05-19T07:45:25.776Z,22.76
2023-05-19T07:47:54.348Z,22.87
2023-05-19T07:50:24.100Z,22.94
2023-05-19T07:52:52.121Z,23.15
2023-05-19T07:55:23.524Z,23.43
2023-05-19T07:57:53.000Z,23.36
2023-05-19T08:00:21.005Z,23.45
2023-05-19T08:02:47.965Z,23.74
2023-05-19T08:05:17.694Z,23.76
2023-05-19T08:07:44.524Z,23.88
2023-05-19T08:10:13.350Z,23.82
2023-05-19T08:12:40.159Z,23.67
2023-05-19T08:15:08.541Z,23.45
2023-05-19T08:17:40.398Z,23.32
2023-05-19T08:20:15.617Z,23.68
2023-05-19T08:22:47.615Z,23.99
2023-05-19T08:25:14.337Z,24.07
2023-05-19T08:27:41.473Z,24.12
2023-05-19T08:30:16.168Z,24.19
2023-05-19T08:32:44.143Z,24.24
2023-05-19T08:35:13.656Z,24.17
2023-05-19T08:37:41.050Z,24.03
2023-05-19T08:40:17.421Z,24.08
2023-05-19T08:42:50.179Z,24.16
2023-05-19T08:45:17.900Z,24.47
2023-05-19T08:47:47.138Z,24.89
2023-05-19T08:50:21.459Z,24.79
2023-05-19T08:52:53.540Z,24.78
2023-05-19T08:55:51.690Z,24.96
2023-05-19T08:58:23.528Z,25.29
2023-05-19T09:00:51.292Z,25.48
2023-05-19T09:06:00.716Z,25.22
2023-05-19T09:08:29.291Z,25.14
2023-05-19T09:11:00.914Z,24.77
2023-05-19T09:13:29.609Z,24.67
2023-05-19T09:16:01.740Z,24.76
2023-05-19T09:18:28.426Z,25.06
2023-05-19T09:21:04.911Z,25.47
2023-05-19T09:23:41.000Z,26.06
2023-05-19T09:26:10.405Z,26.26
2023-05-19T09:28:40.654Z,26.38
2023-05-19T09:31:14.151Z,26.54
2023-05-19T09:33:45.629Z,26.73
2023-05-19T09:36:19.163Z,27.14
2023-05-19T09:38:46.026Z,28.03
2023-05-19T09:41:16.850Z,28.07
2023-05-19T09:43:57.556Z,28.31
2023-05-19T09:46:32.291Z,28.49
2023-05-19T09:49:19.593Z,28.17
2023-05-19T09:51:48.437Z,27.74
2023-05-19T09:54:17.893Z,27.99
2023-05-19T09:56:44.577Z,28.16
2023-05-19T09:59:16.432Z,28.67
2023-05-19T10:01:51.485Z,29.24
2023-05-19T10:04:18.441Z,29.48
2023-05-19T10:06:57.616Z,29.33
2023-05-19T10:09:26.166Z,29.11
2023-05-19T10:11:54.187Z,29.35
2023-05-19T10:14:26.552Z,29.55
2023-05-19T10:16:56.389Z,30.14
2023-05-19T10:19:24.952Z,29.69
2023-05-19T10:21:52.555Z,29.08
2023-05-19T10:24:19.773Z,28.91
2023-05-19T10:27:03.093Z,30.09
2023-05-19T10:29:33.342Z,30.65
2023-05-19T10:32:07.433Z,31.46
2023-05-19T10:35:11.746Z,32.30
2023-05-19T10:37:46.653Z,33.50
2023-05-19T10:40:27.681Z,34.15
2023-05-19T10:43:05.438Z,33.64
2023-05-19T10:45:41.064Z,32.45
2023-05-19T10:48:14.010Z,31.72
2023-05-19T10:50:40.789Z,30.54
2023-05-19T10:53:14.858Z,30.46
2023-05-19T10:55:47.442Z,30.92
2023-05-19T10:58:14.314Z,31.58
2023-05-19T11:00:43.751Z,32.25
2023-05-19T11:03:15.636Z,32.69
2023-05-19T11:05:45.908Z,32.41
2023-05-19T11:08:13.292Z,31.71
2023-05-19T11:10:43.584Z,31.78
2023-05-19T11:13:22.472Z,31.68
2023-05-19T11:15:50.023Z,30.56
2023-05-19T11:18:16.848Z,30.09
2023-05-19T11:20:44.711Z,29.48
2023-05-19T11:23:19.603Z,29.00
2023-05-19T11:25:51.652Z,28.70
2023-05-19T11:28:20.276Z,28.55
2023-05-19T11:30:50.590Z,28.67
2023-05-19T11:33:19.499Z,28.79
2023-05-19T11:35:47.461Z,28.55
2023-05-19T11:38:14.573Z,28.22
2023-05-19T11:40:44.925Z,28.27
2023-05-19T11:43:11.574Z,28.32
2023-05-19T11:45:38.518Z,28.09
2023-05-19T11:48:06.088Z,27.53
2023-05-19T11:50:33.371Z,26.98
2023-05-19T11:53:01.183Z,26.75
2023-05-19T11:55:29.144Z,26.51
2023-05-19T11:58:03.847Z,26.33
2023-05-19T12:00:40.813Z,26.17
2023-05-19T12:03:10.749Z,25.66
2023-05-19T12:05:43.786Z,25.23
2023-05-19T12:08:11.704Z,24.63
2023-05-19T12:10:39.536Z,24.37
2023-05-19T12:13:09.168Z,24.15
2023-05-19T12:15:36.617Z,23.95
2023-05-19T12:18:04.077Z,23.97
2023-05-19T12:20:32.706Z,23.85
2023-05-19T12:23:00.904Z,23.22
2023-05-19T12:25:29.369Z,22.70
2023-05-19T12:28:06.145Z,22.50
2023-05-19T12:30:34.318Z,22.24
2023-05-19T12:33:02.841Z,21.91
2023-05-19T12:35:32.264Z,21.43
2023-05-19T12:38:03.968Z,21.04
2023-05-19T12:40:30.931Z,20.89
2023-05-19T12:42:59.306Z,20.76
2023-05-19T12:45:28.448Z,20.28
2023-05-19T12:47:56.264Z,19.97
2023-05-19T12:50:33.135Z,19.39
2023-05-19T12:53:00.081Z,19.23
2023-05-19T12:55:26.960Z,19.22
2023-05-19T12:57:57.180Z,19.24
2023-05-19T13:00:28.957Z,19.24
2023-05-19T13:03:00.654Z,19.24
2023-05-19T13:05:38.076Z,19.19
2023-05-19T13:08:16.316Z,19.08
2023-05-19T13:10:46.302Z,19.02
2023-05-19T13:13:14.172Z,18.78
2023-05-19T13:15:44.421Z,18.46
2023-05-19T13:18:13.086Z,18.17
2023-05-19T13:20:45.433Z,17.91
2023-05-19T13:23:14.450Z,17.79
2023-05-19T13:25:42.408Z,17.75
2023-05-19T13:28:10.674Z,17.81
2023-05-19T13:30:42.034Z,17.78
2023-05-19T13:33:09.092Z,17.77
2023-05-19T13:35:39.772Z,17.99
2023-05-19T13:38:10.082Z,18.02
2023-05-19T13:40:37.770Z,18.00
2023-05-19T13:43:04.834Z,17.92
2023-05-19T13:45:31.738Z,17.70
2023-05-19T13:47:58.700Z,17.26
2023-05-19T13:50:27.259Z,16.85
2023-05-19T13:52:54.241Z,16.55
2023-05-19T13:55:21.226Z,16.29
2023-05-19T13:57:48.013Z,16.13
2023-05-19T14:00:18.391Z,16.10
2023-05-19T14:02:45.810Z,16.05
2023-05-19T14:05:15.390Z,15.90
2023-05-19T14:07:44.838Z,15.76
2023-05-19T14:10:11.793Z,15.67
2023-05-19T14:12:55.066Z,15.77
2023-05-19T14:15:27.442Z,15.86
2023-05-19T14:17:55.117Z,15.74
2023-05-19T14:20:23.788Z,15.72
2023-05-19T14:22:50.939Z,15.70
2023-05-19T14:25:17.767Z,15.71
2023-05-19T14:27:44.559Z,15.65
2023-05-19T14:30:11.673Z,15.61
2023-05-19T14:32:39.343Z,15.61
2023-05-19T14:35:12.101Z,15.59
2023-05-19T14:37:38.869Z,15.46
2023-05-19T14:40:07.380Z,15.50
2023-05-19T14:42:34.189Z,15.38
2023-05-19T14:45:01.087Z,15.37
2023-05-19T14:47:28.375Z,15.26
2023-05-19T14:49:55.321Z,15.17
2023-05-19T14:52:22.840Z,15.04
2023-05-19T14:54:49.742Z,14.84
2023-05-19T14:57:16.489Z,14.72
2023-05-19T14:59:43.318Z,14.64
2023-05-19T15:02:13.369Z,14.64
2023-05-19T15:04:40.289Z,14.71
2023-05-19T15:07:10.119Z,14.57
2023-05-19T15:09:37.907Z,14.38
